Time;durP1;ratioP1;P1;durP2;ratioP2;P2;SDS_P1;SDS_P2;PMS_P1;PMS_P2;Temp;Humidity;BMP_temperature;BMP_pressure;BME280_temperature;BME280_humidity;BME280_pressure;Samples;Min_cycle;Max_cycle;Signal;HPM_P1;HPM_P2
2022/04/16 00:02:01;;;;;;;31.33;17.90;;;6.50;99.90;;;;;;5000854;28;20131;-73
2022/04/16 00:04:28;;;;;;;25.70;18.17;;;6.40;99.90;;;;;;5001524;28;20044;-73
2022/04/16 00:06:55;;;;;;;29.50;18.85;;;6.40;99.90;;;;;;4980386;28;20813;-73
2022/04/16 00:09:21;;;;;;;25.55;17.70;;;6.40;99.90;;;;;;4979228;28;20356;-73
2022/04/16 00:11:46;;;;;;;34.55;19.05;;;6.40;99.90;;;;;;4992367;28;20045;-72
2022/04/16 00:14:13;;;;;;;41.10;18.40;;;6.40;99.90;;;;;;4972813;28;20053;-73
2022/04/16 00:16:39;;;;;;;35.25;20.23;;;6.30;99.90;;;;;;5005842;28;20051;-73
2022/04/16 00:19:05;;;;;;;37.20;19.13;;;6.30;99.90;;;;;;4989041;28;20045;-73
2022/04/16 00:21:30;;;;;;;28.48;18.27;;;6.20;99.90;;;;;;5001824;28;20040;-73
2022/04/16 00:23:57;;;;;;;32.47;22.75;;;6.20;99.90;;;;;;5011736;28;20722;-73
2022/04/16 00:26:23;;;;;;;30.85;20.73;;;6.20;99.90;;;;;;4987634;28;20057;-73
2022/04/16 00:28:52;;;;;;;32.33;20.58;;;6.30;99.90;;;;;;5008009;28;20060;-73
2022/04/16 00:31:18;;;;;;;33.97;23.02;;;6.20;99.90;;;;;;5002392;28;20049;-73
2022/04/16 00:33:48;;;;;;;30.20;21.90;;;6.40;99.90;;;;;;5009826;28;20048;-73
2022/04/16 00:36:15;;;;;;;28.48;19.45;;;6.30;99.90;;;;;;5011174;28;20495;-73
2022/04/16 00:38:42;;;;;;;29.98;20.70;;;6.20;99.90;;;;;;4990103;28;20176;-73
2022/04/16 00:41:08;;;;;;;24.70;20.65;;;6.20;99.90;;;;;;5006962;28;20041;-73
2022/04/16 00:43:33;;;;;;;30.00;22.02;;;6.20;99.90;;;;;;5007232;28;20423;-73
2022/04/16 00:46:00;;;;;;;30.90;24.88;;;6.20;99.90;;;;;;4989942;28;20627;-73
2022/04/16 00:48:26;;;;;;;29.15;23.60;;;6.20;99.90;;;;;;5000259;28;20565;-73
2022/04/16 00:50:56;;;;;;;28.40;21.25;;;6.20;99.90;;;;;;4998838;28;20053;-73
2022/04/16 00:53:25;;;;;;;36.97;19.58;;;6.20;99.90;;;;;;5001275;28;20047;-74
2022/04/16 00:55:51;;;;;;;25.52;20.27;;;6.10;99.90;;;;;;5000666;28;20046;-74
2022/04/16 00:58:17;;;;;;;32.15;22.10;;;6.10;99.90;;;;;;5005822;28;20041;-74
2022/04/16 01:00:43;;;;;;;30.15;22.83;;;6.10;99.90;;;;;;4995672;28;20049;-74
2022/04/16 01:03:09;;;;;;;27.70;21.63;;;6.10;99.90;;;;;;5003287;28;20077;-74
2022/04/16 01:05:37;;;;;;;24.20;20.10;;;6.10;99.90;;;;;;5002457;28;20064;-74
2022/04/16 01:08:04;;;;;;;30.00;22.95;;;6.10;99.90;;;;;;4982442;28;20927;-73
2022/04/16 01:10:31;;;;;;;28.85;22.05;;;6.20;99.90;;;;;;4997816;28;20133;-74
2022/04/16 01:12:59;;;;;;;31.95;23.80;;;6.20;99.90;;;;;;4979493;28;20068;-73
2022/04/16 01:15:29;;;;;;;35.80;25.73;;;6.40;99.90;;;;;;5001867;28;20645;-73
2022/04/16 01:17:56;;;;;;;37.15;28.60;;;6.50;99.90;;;;;;4998708;28;20053;-73
2022/04/16 01:20:22;;;;;;;39.42;28.52;;;6.60;99.90;;;;;;4964032;28;20038;-73
2022/04/16 01:22:56;;;;;;;35.35;27.58;;;6.60;99.90;;;;;;5002524;28;20056;-73
2022/04/16 01:25:26;;;;;;;36.45;27.10;;;6.70;99.90;;;;;;4979967;28;20049;-73
2022/04/16 01:27:53;;;;;;;37.10;27.30;;;6.50;99.90;;;;;;4990031;28;20045;-73
2022/04/16 01:30:21;;;;;;;40.15;26.92;;;6.50;99.90;;;;;;4982070;28;20572;-73
2022/04/16 01:32:50;;;;;;;39.88;29.15;;;6.50;99.90;;;;;;4977684;28;20061;-73
2022/04/16 01:35:17;;;;;;;44.83;29.13;;;6.60;99.90;;;;;;4995089;28;20058;-73
2022/04/16 01:37:43;;;;;;;36.58;28.73;;;6.60;99.90;;;;;;4975935;28;20159;-73
2022/04/16 01:40:11;;;;;;;42.78;31.42;;;6.50;99.90;;;;;;4977243;28;20049;-73
2022/04/16 01:42:37;;;;;;;44.85;30.17;;;6.60;99.90;;;;;;4993215;28;20045;-73
2022/04/16 01:45:11;;;;;;;44.65;32.80;;;6.70;99.90;;;;;;4995185;28;20050;-73
2022/04/16 01:47:38;;;;;;;44.03;30.60;;;6.60;99.90;;;;;;5000617;28;20501;-73
2022/04/16 01:50:06;;;;;;;44.47;32.30;;;6.60;99.90;;;;;;4985397;28;20095;-73
2022/04/16 01:52:32;;;;;;;47.33;33.78;;;6.60;99.90;;;;;;4984778;28;20109;-73
2022/04/16 01:54:59;;;;;;;46.42;34.70;;;6.70;99.90;;;;;;4996753;28;20045;-73
2022/04/16 01:57:25;;;;;;;44.90;32.50;;;6.60;99.90;;;;;;4992435;28;20057;-73
2022/04/16 01:59:50;;;;;;;51.22;35.85;;;6.60;99.90;;;;;;4999935;28;20057;-73
2022/04/16 02:02:17;;;;;;;46.25;34.83;;;6.70;99.90;;;;;;4995102;28;20060;-73
2022/04/16 02:04:43;;;;;;;47.10;33.85;;;6.60;99.90;;;;;;4999295;28;20923;-73
2022/04/16 02:07:09;;;;;;;53.28;36.40;;;6.70;99.90;;;;;;5001175;28;20155;-74
2022/04/16 02:09:35;;;;;;;51.15;34.38;;;6.70;99.90;;;;;;4983677;28;20057;-74
2022/04/16 02:12:01;;;;;;;53.53;36.63;;;6.70;99.90;;;;;;4988772;28;20049;-73
2022/04/16 02:14:28;;;;;;;54.60;36.60;;;6.70;99.90;;;;;;4995621;28;20075;-73
2022/04/16 02:16:54;;;;;;;55.78;36.85;;;6.80;99.90;;;;;;4988789;28;20160;-73
2022/04/16 02:19:20;;;;;;;56.50;38.35;;;6.70;99.90;;;;;;4976693;28;20574;-73
2022/04/16 02:21:47;;;;;;;60.15;38.80;;;6.90;99.90;;;;;;4989433;28;20049;-73
2022/04/16 02:24:13;;;;;;;55.13;37.65;;;6.70;99.90;;;;;;4990646;28;20115;-73
2022/04/16 02:26:43;;;;;;;56.95;37.00;;;6.80;99.90;;;;;;4995258;28;20480;-73
2022/04/16 02:29:10;;;;;;;52.95;36.30;;;6.60;99.90;;;;;;4993917;28;20075;-73
2022/04/16 02:31:40;;;;;;;53.63;37.17;;;6.70;99.90;;;;;;4974994;28;20053;-73
2022/04/16 02:34:07;;;;;;;58.05;39.65;;;6.70;99.90;;;;;;4992934;28;20073;-74
2022/04/16 02:36:33;;;;;;;58.45;38.72;;;6.80;99.90;;;;;;4989065;28;20099;-73
2022/04/16 02:39:00;;;;;;;56.65;37.72;;;6.70;99.90;;;;;;4990966;28;20049;-74
2022/04/16 02:41:26;;;;;;;50.97;37.03;;;6.70;99.90;;;;;;4976973;28;20559;-74
2022/04/16 02:43:55;;;;;;;55.85;37.65;;;6.70;99.90;;;;;;4991740;28;20119;-73
2022/04/16 02:49:10;;;;;;;58.70;38.17;;;6.60;99.90;;;;;;4989894;28;20053;-73
2022/04/16 02:51:36;;;;;;;58.35;37.53;;;6.70;99.90;;;;;;4994764;28;20049;-73
2022/04/16 02:54:01;;;;;;;56.78;38.55;;;6.50;99.90;;;;;;4973657;28;20063;-73
2022/04/16 02:56:27;;;;;;;57.58;39.30;;;6.60;99.90;;;;;;4973978;28;20309;-73
2022/04/16 02:58:53;;;;;;;61.97;39.70;;;6.70;99.90;;;;;;4989992;28;20801;-73
2022/04/16 03:01:19;;;;;;;65.15;41.55;;;6.60;99.90;;;;;;4969259;28;20048;-74
2022/04/16 03:03:45;;;;;;;63.42;40.20;;;6.60;99.90;;;;;;4991848;28;20057;-73
2022/04/16 03:06:11;;;;;;;62.00;40.17;;;6.70;99.90;;;;;;5003179;28;20838;-74
2022/04/16 03:08:37;;;;;;;61.08;41.20;;;6.80;99.90;;;;;;5012590;28;20048;-74
2022/04/16 03:11:06;;;;;;;66.07;40.15;;;6.90;99.90;;;;;;5008553;28;20049;-74
2022/04/16 03:13:35;;;;;;;59.30;41.47;;;6.90;99.90;;;;;;4992998;28;20049;-74
2022/04/16 03:18:46;;;;;;;62.60;40.72;;;7.10;99.90;;;;;;4994139;28;20570;-73
2022/04/16 03:21:12;;;;;;;59.88;41.67;;;7.10;99.90;;;;;;4990873;28;20053;-73
2022/04/16 03:23:38;;;;;;;55.55;40.45;;;7.20;99.90;;;;;;5007913;28;20072;-74
2022/04/16 03:26:04;;;;;;;57.13;39.65;;;7.20;99.90;;;;;;5008849;28;20049;-74
2022/04/16 03:28:31;;;;;;;52.88;38.72;;;7.20;99.90;;;;;;5006841;28;20045;-73
2022/04/16 03:30:58;;;;;;;54.08;38.10;;;7.30;99.90;;;;;;4992245;28;20056;-74
2022/04/16 03:33:24;;;;;;;57.33;39.38;;;7.30;99.90;;;;;;4992278;28;20041;-73
2022/04/16 03:35:51;;;;;;;52.42;37.58;;;7.30;99.90;;;;;;4994351;28;20076;-73
2022/04/16 03:38:18;;;;;;;48.55;38.05;;;7.30;99.90;;;;;;4976620;28;20543;-73
2022/04/16 03:40:44;;;;;;;49.42;37.85;;;7.40;99.90;;;;;;4978662;28;20059;-74
2022/04/16 03:43:10;;;;;;;48.70;36.55;;;7.50;99.90;;;;;;4990972;28;20124;-73
2022/04/16 03:45:37;;;;;;;50.67;37.53;;;7.50;99.90;;;;;;4979415;28;20503;-74
2022/04/16 03:48:06;;;;;;;46.90;35.60;;;7.60;99.90;;;;;;4995318;28;20106;-74
2022/04/16 03:50:33;;;;;;;46.08;35.67;;;7.60;99.90;;;;;;4994028;28;20739;-74
2022/04/16 03:53:00;;;;;;;41.63;33.42;;;7.60;99.90;;;;;;4993492;28;20075;-74
2022/04/16 04:00:58;;;;;;;44.00;33.42;;;7.90;99.90;;;;;;4991701;28;20654;-74
2022/04/16 04:03:24;;;;;;;37.85;32.03;;;7.90;99.90;;;;;;4976129;28;20491;-73
2022/04/16 04:05:53;;;;;;;36.03;29.58;;;7.90;99.90;;;;;;4994012;28;20060;-74
2022/04/16 04:08:20;;;;;;;34.28;29.70;;;8.00;99.90;;;;;;4974664;28;20056;-74
2022/04/16 04:10:47;;;;;;;35.35;29.33;;;8.10;99.90;;;;;;4976113;28;20049;-74
2022/04/16 04:13:13;;;;;;;35.38;29.50;;;8.10;99.90;;;;;;4992405;28;20122;-74
2022/04/16 04:15:42;;;;;;;39.25;31.13;;;8.10;99.90;;;;;;4991879;28;20416;-74
2022/04/16 04:18:08;;;;;;;36.92;32.00;;;8.10;99.90;;;;;;4985685;28;20919;-73
2022/04/16 04:20:37;;;;;;;37.22;28.08;;;8.00;99.90;;;;;;4992236;28;20068;-74
2022/04/16 04:23:04;;;;;;;38.92;29.98;;;8.10;99.90;;;;;;4977863;28;20801;-74
2022/04/16 04:25:30;;;;;;;37.35;28.33;;;8.10;99.90;;;;;;4996533;28;20041;-74
2022/04/16 04:27:56;;;;;;;35.85;30.05;;;8.10;99.90;;;;;;4955267;28;20096;-74
2022/04/16 04:30:23;;;;;;;37.83;28.77;;;8.10;99.90;;;;;;4971899;28;20363;-74
2022/04/16 04:32:48;;;;;;;34.55;28.25;;;8.10;99.90;;;;;;4994772;28;20415;-74
2022/04/16 04:35:15;;;;;;;35.63;27.48;;;8.10;99.90;;;;;;5007033;28;20111;-74
2022/04/16 04:37:42;;;;;;;29.98;25.42;;;8.10;99.90;;;;;;5008239;28;20045;-74
2022/04/16 04:40:08;;;;;;;30.20;25.80;;;8.10;99.90;;;;;;5014420;28;20049;-74
2022/04/16 04:42:35;;;;;;;32.10;25.90;;;8.20;99.90;;;;;;5007785;28;20123;-74
2022/04/16 04:45:09;;;;;;;29.77;24.42;;;8.10;99.90;;;;;;5006111;28;20088;-74
2022/04/16 04:47:35;;;;;;;29.95;24.67;;;8.10;99.90;;;;;;5005913;28;20048;-74
2022/04/16 04:50:01;;;;;;;32.88;25.48;;;8.20;99.90;;;;;;5008756;28;20045;-75
2022/04/16 04:52:27;;;;;;;29.95;23.98;;;8.20;99.90;;;;;;5011267;28;20049;-74
2022/04/16 04:54:54;;;;;;;28.83;23.45;;;8.20;99.90;;;;;;5008795;28;21258;-74
2022/04/16 04:57:19;;;;;;;28.27;21.77;;;8.20;99.90;;;;;;5008036;28;20045;-74
2022/04/16 04:59:45;;;;;;;28.17;22.25;;;8.20;99.90;;;;;;4991658;28;20501;-74
2022/04/16 05:02:11;;;;;;;26.33;21.45;;;8.20;99.90;;;;;;4991659;28;20057;-73
2022/04/16 05:04:37;;;;;;;27.33;22.20;;;8.30;99.90;;;;;;5002832;28;20126;-74
2022/04/16 05:07:05;;;;;;;26.77;21.38;;;8.30;99.90;;;;;;5010085;28;20056;-74
2022/04/16 05:09:31;;;;;;;28.45;21.50;;;8.20;99.90;;;;;;4989428;28;20089;-74
2022/04/16 05:11:57;;;;;;;28.17;21.52;;;8.30;99.90;;;;;;5010499;28;20495;-74
2022/04/16 05:14:23;;;;;;;26.23;21.35;;;8.30;99.90;;;;;;4989440;28;20096;-74
2022/04/16 05:16:49;;;;;;;26.70;21.70;;;8.20;99.90;;;;;;5007986;28;20096;-74
2022/04/16 05:19:16;;;;;;;25.77;20.85;;;8.40;99.90;;;;;;5007801;28;20055;-74
2022/04/16 05:21:42;;;;;;;25.30;20.02;;;8.30;99.90;;;;;;5011516;28;20053;-74
2022/04/16 05:24:08;;;;;;;30.70;21.50;;;8.30;99.90;;;;;;5009048;28;20041;-74
2022/04/16 05:26:35;;;;;;;26.30;20.55;;;8.30;99.90;;;;;;5008450;28;20067;-75
2022/04/16 05:29:00;;;;;;;28.92;22.00;;;8.40;99.90;;;;;;4995762;28;20056;-74
2022/04/16 05:31:26;;;;;;;27.42;21.45;;;9.00;99.90;;;;;;4989794;28;20045;-74
2022/04/16 05:36:38;;;;;;;25.90;20.33;;;10.00;99.90;;;;;;4986857;28;20546;-74
2022/04/16 05:39:04;;;;;;;26.52;19.75;;;10.20;99.90;;;;;;5007632;28;20719;-74
2022/04/16 05:41:33;;;;;;;24.38;18.52;;;10.60;99.90;;;;;;5002991;28;20048;-74
2022/04/16 05:44:00;;;;;;;26.80;19.88;;;10.60;99.90;;;;;;5004514;28;20034;-74
2022/04/16 05:46:26;;;;;;;24.05;19.05;;;11.20;99.90;;;;;;5007964;28;20098;-74
2022/04/16 05:48:52;;;;;;;24.65;19.23;;;11.10;99.90;;;;;;4992017;28;20509;-74
2022/04/16 05:51:20;;;;;;;23.73;18.08;;;10.80;99.90;;;;;;5004392;28;20148;-74
2022/04/16 05:53:46;;;;;;;25.70;20.27;;;10.00;99.90;;;;;;5008110;28;20138;-74
2022/04/16 05:56:13;;;;;;;25.48;19.42;;;9.90;99.90;;;;;;5002842;28;20092;-74
2022/04/16 05:58:40;;;;;;;25.15;18.65;;;9.80;99.90;;;;;;4992409;28;20056;-74
2022/04/16 06:01:07;;;;;;;24.02;18.80;;;9.80;99.90;;;;;;5005461;28;20140;-74
2022/04/16 06:03:34;;;;;;;23.20;18.42;;;9.80;99.90;;;;;;5006088;28;20060;-74
2022/04/16 06:06:01;;;;;;;25.85;19.65;;;9.60;99.90;;;;;;4989028;28;20241;-73
2022/04/16 06:08:27;;;;;;;24.30;18.52;;;9.70;99.90;;;;;;5012674;28;20045;-73
2022/04/16 06:10:53;;;;;;;24.98;18.23;;;9.60;99.90;;;;;;5008066;28;20055;-74
2022/04/16 06:13:19;;;;;;;23.80;17.27;;;9.60;99.90;;;;;;5009322;28;20041;-73
2022/04/16 06:15:44;;;;;;;24.88;18.08;;;9.50;99.90;;;;;;4994558;28;21123;-73
2022/04/16 06:18:11;;;;;;;23.45;17.42;;;9.60;99.90;;;;;;4975649;28;20051;-73
2022/04/16 06:20:37;;;;;;;22.35;16.27;;;9.90;99.90;;;;;;5002190;28;20125;-74
2022/04/16 06:23:04;;;;;;;22.45;16.77;;;9.70;99.90;;;;;;4995467;28;20049;-74
2022/04/16 06:25:31;;;;;;;20.85;15.07;;;9.50;99.90;;;;;;5002877;28;20048;-74
2022/04/16 06:27:56;;;;;;;20.20;14.73;;;9.30;99.90;;;;;;5009651;28;20075;-75
2022/04/16 06:30:23;;;;;;;20.90;14.60;;;9.20;99.90;;;;;;5002656;28;20140;-73
2022/04/16 06:32:48;;;;;;;21.25;14.70;;;9.30;99.90;;;;;;5006322;28;20468;-75
2022/04/16 06:35:14;;;;;;;19.30;14.65;;;9.90;99.90;;;;;;4998375;28;20053;-74
2022/04/16 06:37:43;;;;;;;21.15;13.75;;;10.20;99.90;;;;;;5004226;28;20045;-74
2022/04/16 06:40:10;;;;;;;20.83;14.10;;;9.90;99.90;;;;;;5006823;28;20046;-75
2022/04/16 06:42:37;;;;;;;18.95;14.20;;;9.80;99.90;;;;;;4994647;28;20507;-75
2022/04/16 06:45:06;;;;;;;21.10;14.30;;;10.00;99.90;;;;;;5011706;28;20048;-74
2022/04/16 06:47:32;;;;;;;21.10;13.90;;;9.90;99.90;;;;;;5004991;28;20042;-74
2022/04/16 06:49:58;;;;;;;18.85;13.68;;;10.00;99.90;;;;;;5014359;28;20053;-74
2022/04/16 06:52:24;;;;;;;18.35;12.95;;;10.00;99.90;;;;;;5009881;28;20136;-74
2022/04/16 06:54:50;;;;;;;16.83;11.95;;;10.20;99.90;;;;;;4995385;28;20132;-74
2022/04/16 06:57:16;;;;;;;18.63;13.38;;;10.30;99.90;;;;;;5012805;28;20044;-75
2022/04/16 06:59:42;;;;;;;24.92;13.82;;;10.20;99.90;;;;;;5009354;28;20125;-74
2022/04/16 07:02:10;;;;;;;18.00;12.65;;;10.60;99.90;;;;;;5007525;28;20409;-74
2022/04/16 07:04:36;;;;;;;17.63;12.23;;;10.40;99.90;;;;;;5007292;28;20057;-74
2022/04/16 07:07:03;;;;;;;16.50;12.15;;;10.30;99.90;;;;;;4990185;28;20069;-74
2022/04/16 07:09:29;;;;;;;16.48;12.05;;;10.20;99.90;;;;;;5004708;28;20045;-74
2022/04/16 07:11:55;;;;;;;17.48;12.05;;;10.10;99.90;;;;;;5009485;28;20049;-75
2022/04/16 07:14:21;;;;;;;17.38;12.35;;;10.00;99.90;;;;;;5006493;28;20420;-75
2022/04/16 07:16:47;;;;;;;17.55;11.60;;;9.70;99.90;;;;;;4991082;28;20052;-74
2022/04/16 07:19:13;;;;;;;16.15;11.05;;;9.90;99.90;;;;;;5006245;28;20428;-75
2022/04/16 07:21:39;;;;;;;15.73;10.70;;;10.20;99.90;;;;;;5003920;28;20172;-75
2022/04/16 07:24:05;;;;;;;16.45;10.35;;;10.30;99.90;;;;;;5004247;28;20049;-74
2022/04/16 07:26:31;;;;;;;16.17;9.55;;;11.10;99.90;;;;;;4987178;28;20056;-75
2022/04/16 07:28:57;;;;;;;15.13;9.15;;;10.40;99.90;;;;;;4989808;28;20232;-75
2022/04/16 07:31:23;;;;;;;14.57;8.85;;;10.20;99.90;;;;;;5001277;28;20044;-75
2022/04/16 07:33:49;;;;;;;15.52;9.45;;;10.40;99.90;;;;;;5001737;28;20461;-75
2022/04/16 07:36:16;;;;;;;12.88;7.88;;;10.40;99.90;;;;;;5004987;28;20064;-75
2022/04/16 07:38:43;;;;;;;14.25;8.40;;;10.00;99.90;;;;;;5005618;28;20826;-75
2022/04/16 07:41:10;;;;;;;13.70;8.55;;;9.90;99.90;;;;;;5005977;28;20499;-75
2022/04/16 07:43:36;;;;;;;17.20;8.70;;;10.60;99.90;;;;;;5000883;28;20042;-75
2022/04/16 07:46:02;;;;;;;15.25;8.32;;;10.50;99.90;;;;;;5011073;28;20046;-75
2022/04/16 07:48:28;;;;;;;14.35;9.02;;;10.50;99.90;;;;;;5004542;28;20045;-75
2022/04/16 07:50:54;;;;;;;13.63;7.65;;;10.40;99.90;;;;;;5014659;28;20531;-76
2022/04/16 07:53:20;;;;;;;15.93;7.82;;;10.40;99.90;;;;;;5006677;28;20049;-75
2022/04/16 07:55:46;;;;;;;13.35;7.40;;;10.30;99.90;;;;;;4991332;28;20091;-75
2022/04/16 07:58:13;;;;;;;11.35;6.90;;;10.50;99.90;;;;;;5006772;28;20073;-73
2022/04/16 08:00:39;;;;;;;11.70;6.30;;;10.30;99.90;;;;;;4991417;28;20045;-75
2022/04/16 08:03:05;;;;;;;10.07;5.78;;;10.20;99.90;;;;;;4976371;28;20046;-74
2022/04/16 08:05:31;;;;;;;10.57;5.93;;;10.60;99.90;;;;;;4983080;28;20063;-75
2022/04/16 08:07:57;;;;;;;14.88;6.55;;;10.70;99.90;;;;;;5001933;28;20046;-74
2022/04/16 08:10:24;;;;;;;10.18;5.55;;;10.80;99.90;;;;;;4983024;28;20088;-74
2022/04/16 08:12:50;;;;;;;9.05;5.13;;;10.90;99.90;;;;;;5007771;28;20101;-74
2022/04/16 08:15:16;;;;;;;9.52;5.28;;;10.60;99.90;;;;;;5006374;28;20136;-75
2022/04/16 08:17:42;;;;;;;10.18;4.72;;;10.50;99.90;;;;;;4999029;28;20063;-75
2022/04/16 08:20:09;;;;;;;10.55;5.22;;;10.70;99.90;;;;;;4977086;28;20045;-75
2022/04/16 08:22:35;;;;;;;9.60;4.25;;;10.30;99.90;;;;;;5002820;28;20127;-75
2022/04/16 08:27:48;;;;;;;8.15;4.32;;;10.70;99.90;;;;;;5000594;28;20058;-75
2022/04/16 08:30:15;;;;;;;5.95;3.40;;;11.30;99.90;;;;;;4983116;28;20523;-75
2022/04/16 08:32:42;;;;;;;9.00;4.05;;;10.60;99.90;;;;;;4979695;28;20152;-75
2022/04/16 08:35:14;;;;;;;7.80;4.05;;;11.10;99.90;;;;;;5003282;28;20147;-74
2022/04/16 08:37:40;;;;;;;7.85;3.90;;;11.20;99.90;;;;;;4981744;28;20582;-75
2022/04/16 08:40:07;;;;;;;7.07;3.40;;;11.50;99.90;;;;;;5003418;28;20499;-75
2022/04/16 08:42:35;;;;;;;7.00;2.65;;;11.70;99.90;;;;;;4982204;28;20057;-75
2022/04/16 08:45:03;;;;;;;7.18;3.00;;;12.30;99.90;;;;;;5004667;28;20056;-76
2022/04/16 08:47:30;;;;;;;5.40;2.47;;;12.70;99.90;;;;;;4999344;28;20487;-75
2022/04/16 08:49:56;;;;;;;6.20;2.85;;;12.40;99.90;;;;;;5006392;28;20045;-75
2022/04/16 08:52:24;;;;;;;6.15;2.72;;;11.70;98.90;;;;;;5002859;28;20056;-75
2022/04/16 08:54:49;;;;;;;6.85;2.80;;;12.20;99.90;;;;;;4985603;28;20081;-75
2022/04/16 08:57:16;;;;;;;5.82;2.55;;;12.30;99.90;;;;;;4978606;28;20136;-75
2022/04/16 08:59:52;;;;;;;8.75;3.38;;;12.40;99.90;;;;;;4968547;28;20134;-75
2022/04/16 09:02:22;;;;;;;6.30;2.85;;;12.50;95.70;;;;;;5008353;28;20049;-75
2022/04/16 09:04:49;;;;;;;6.50;2.58;;;11.90;99.90;;;;;;4998646;28;20040;-75
2022/04/16 09:07:15;;;;;;;11.93;3.47;;;11.50;99.90;;;;;;4956586;28;20049;-75
2022/04/16 09:09:42;;;;;;;21.85;3.30;;;12.10;99.90;;;;;;4991480;28;20700;-76
2022/04/16 09:12:19;;;;;;;6.75;2.88;;;11.90;99.90;;;;;;5009299;28;20049;-74
2022/04/16 09:14:46;;;;;;;7.53;2.88;;;11.70;99.90;;;;;;4986136;28;20659;-75
2022/04/16 09:17:16;;;;;;;5.68;2.45;;;11.60;97.40;;;;;;4965842;28;20971;-75
2022/04/16 09:19:42;;;;;;;7.30;2.40;;;11.30;88.40;;;;;;4995101;28;20045;-75
2022/04/16 09:22:09;;;;;;;5.63;2.20;;;11.30;88.60;;;;;;4998731;28;20049;-75
2022/04/16 09:24:48;;;;;;;5.28;1.80;;;11.90;87.00;;;;;;4978214;28;20543;-74
2022/04/16 09:27:14;;;;;;;5.05;1.92;;;11.90;81.70;;;;;;4998115;28;20088;-75
2022/04/16 09:29:40;;;;;;;15.95;2.45;;;11.70;87.70;;;;;;4995728;28;20064;-75
2022/04/16 09:32:07;;;;;;;4.85;1.80;;;12.50;87.30;;;;;;4998624;28;20080;-75
2022/04/16 09:34:33;;;;;;;4.90;1.75;;;12.00;80.50;;;;;;4977685;28;20103;-75
2022/04/16 09:37:12;;;;;;;4.75;1.80;;;11.30;71.80;;;;;;4970496;28;20240;-74
2022/04/16 09:39:37;;;;;;;5.57;2.03;;;11.50;79.40;;;;;;4110790;28;10001077;-74
2022/04/16 09:42:03;;;;;;;5.70;2.35;;;11.80;79.00;;;;;;5009251;28;20044;-74
2022/04/16 09:44:29;;;;;;;5.53;1.70;;;11.50;90.70;;;;;;5014068;28;20048;-73
2022/04/16 09:46:56;;;;;;;3.75;1.70;;;11.80;74.40;;;;;;5013944;28;20093;-74
2022/04/16 09:49:33;;;;;;;4.10;1.90;;;12.50;82.50;;;;;;4883442;28;10000846;-74
2022/04/16 09:52:06;;;;;;;5.47;1.90;;;12.30;80.90;;;;;;4489203;28;10000418;-74
2022/04/16 09:54:33;;;;;;;4.72;1.70;;;12.60;79.80;;;;;;5013534;28;20049;-74
2022/04/16 09:57:03;;;;;;;4.20;1.95;;;12.40;82.70;;;;;;5017127;28;20048;-74
2022/04/16 09:59:35;;;;;;;6.45;2.20;;;12.70;87.20;;;;;;5015828;28;20159;-75
2022/04/16 10:02:03;;;;;;;4.80;1.60;;;12.70;76.80;;;;;;5011228;28;20099;-75
2022/04/16 10:04:29;;;;;;;4.65;1.70;;;12.40;71.00;;;;;;4988600;28;20045;-75
2022/04/16 10:06:56;;;;;;;5.55;1.65;;;12.20;70.10;;;;;;5011146;28;20047;-75
2022/04/16 10:09:24;;;;;;;3.15;1.25;;;12.30;68.20;;;;;;4139890;28;10001594;-75
2022/04/16 10:15:02;;;;;;;3.67;1.40;;;13.00;75.30;;;;;;5017113;28;20121;-74
2022/04/16 10:17:52;;;;;;;4.68;1.63;;;12.20;67.80;;;;;;5021038;28;20052;-74
2022/04/16 10:20:20;;;;;;;2.95;1.40;;;12.70;70.20;;;;;;5010965;28;20619;-75
2022/04/16 10:22:54;;;;;;;3.63;1.40;;;12.80;66.80;;;;;;5007328;28;20049;-75
2022/04/16 10:25:44;;;;;;;2.88;1.40;;;12.60;70.00;;;;;;4991242;28;20141;-75
2022/04/16 10:28:16;;;;;;;5.25;1.48;;;13.10;73.30;;;;;;4988303;28;20144;-75
2022/04/16 10:30:50;;;;;;;3.13;1.30;;;12.90;65.10;;;;;;5008316;28;20079;-74
2022/04/16 10:33:18;;;;;;;3.78;1.48;;;12.80;72.60;;;;;;5008484;28;20460;-74
2022/04/16 10:36:10;;;;;;;3.53;1.50;;;12.80;72.70;;;;;;5007309;28;20580;-75
2022/04/16 10:38:40;;;;;;;4.50;1.80;;;13.50;74.30;;;;;;4994038;28;20052;-75
2022/04/16 10:41:14;;;;;;;3.33;1.45;;;13.40;69.60;;;;;;4980854;28;20459;-74
2022/04/16 10:43:40;;;;;;;2.88;1.30;;;12.70;67.10;;;;;;5002199;28;20110;-76
2022/04/16 10:46:09;;;;;;;4.03;1.30;;;12.40;62.50;;;;;;4993124;28;20427;-75
2022/04/16 10:48:39;;;;;;;4.50;1.70;;;12.80;64.30;;;;;;5011721;28;20103;-75
2022/04/16 10:51:06;;;;;;;4.22;1.40;;;13.40;68.10;;;;;;4997220;28;20682;-75
2022/04/16 10:53:41;;;;;;;3.33;1.40;;;13.90;70.20;;;;;;5011291;28;20119;-75
2022/04/16 10:56:14;;;;;;;4.53;1.30;;;14.10;70.10;;;;;;5014569;28;20045;-75
2022/04/16 10:58:45;;;;;;;6.10;1.50;;;13.90;68.60;;;;;;5011141;28;20094;-75
2022/04/16 11:01:22;;;;;;;4.53;1.75;;;13.50;69.80;;;;;;4996777;28;20060;-76
2022/04/16 11:03:49;;;;;;;2.92;1.20;;;14.20;67.80;;;;;;5006926;28;20593;-75
2022/04/16 11:06:16;;;;;;;2.22;1.10;;;13.30;60.50;;;;;;4981653;28;20484;-75
2022/04/16 11:08:45;;;;;;;3.03;1.30;;;13.90;65.70;;;;;;5000071;28;20492;-74
2022/04/16 11:11:15;;;;;;;3.42;1.38;;;13.40;65.00;;;;;;5014153;28;20523;-75
2022/04/16 11:13:42;;;;;;;3.15;1.20;;;12.80;58.70;;;;;;5015903;28;20057;-75
2022/04/16 11:16:09;;;;;;;3.75;1.20;;;12.90;63.80;;;;;;5003810;28;20211;-75
2022/04/16 11:18:42;;;;;;;3.00;1.30;;;13.30;67.00;;;;;;5003759;28;20051;-75
2022/04/16 11:21:13;;;;;;;3.35;1.40;;;13.40;63.00;;;;;;5007890;28;20045;-75
2022/04/16 11:23:51;;;;;;;2.83;1.30;;;13.00;63.00;;;;;;5019470;28;20063;-74
2022/04/16 11:34:35;;;;;;;2.80;1.25;;;14.20;66.20;;;;;;5028695;28;20060;-75
2022/04/16 11:37:00;;;;;;;2.40;1.40;;;12.90;55.70;;;;;;5003476;28;20504;-75
2022/04/16 11:39:28;;;;;;;3.13;1.40;;;12.90;59.30;;;;;;5004717;28;20098;-75
2022/04/16 11:41:59;;;;;;;2.25;1.35;;;13.10;62.60;;;;;;5022167;28;20049;-75
2022/04/16 11:44:46;;;;;;;3.65;1.50;;;13.20;61.20;;;;;;5020801;28;20048;-74
2022/04/16 11:47:20;;;;;;;2.30;1.30;;;12.90;57.40;;;;;;5021060;28;20044;-74
2022/04/16 11:49:49;;;;;;;5.28;1.52;;;13.50;65.90;;;;;;5030519;28;20044;-75
2022/04/16 11:52:15;;;;;;;3.75;1.30;;;13.50;59.20;;;;;;5021768;28;20072;-76
2022/04/16 11:54:41;;;;;;;7.28;1.50;;;13.50;60.90;;;;;;5021053;28;20110;-74
2022/04/16 11:57:07;;;;;;;6.70;1.50;;;13.60;62.70;;;;;;5018697;28;20040;-75
2022/04/16 11:59:34;;;;;;;2.97;1.33;;;13.90;60.00;;;;;;5018155;28;20052;-74
2022/04/16 12:02:08;;;;;;;5.00;1.60;;;13.60;63.40;;;;;;5023300;28;20053;-75
2022/04/16 12:04:37;;;;;;;2.90;1.50;;;13.80;63.90;;;;;;5009500;28;20054;-76
2022/04/16 12:07:13;;;;;;;4.15;1.50;;;13.80;57.40;;;;;;5015284;28;20049;-76
2022/04/16 12:09:50;;;;;;;4.90;1.40;;;13.50;59.90;;;;;;5011770;28;20155;-76
2022/04/16 12:12:18;;;;;;;3.25;1.30;;;13.90;60.40;;;;;;5014083;28;20045;-77
2022/04/16 12:14:48;;;;;;;4.30;1.35;;;14.00;57.00;;;;;;5012130;28;20049;-74
2022/04/16 12:17:31;;;;;;;2.90;1.20;;;14.50;62.10;;;;;;5010931;28;20045;-75
2022/04/16 12:20:06;;;;;;;2.63;1.17;;;14.10;60.60;;;;;;4993183;28;20041;-75
2022/04/16 12:22:33;;;;;;;2.63;1.50;;;13.60;56.20;;;;;;5007472;28;20049;-76
2022/04/16 12:25:13;;;;;;;3.47;1.40;;;14.00;60.00;;;;;;5000266;28;20049;-74
2022/04/16 12:27:56;;;;;;;3.50;1.48;;;13.70;60.20;;;;;;5010169;28;20051;-75
2022/04/16 12:30:26;;;;;;;2.05;1.25;;;14.10;61.70;;;;;;4998449;28;20052;-75
2022/04/16 12:33:11;;;;;;;4.22;1.20;;;14.10;59.90;;;;;;5015947;28;20048;-75
2022/04/16 12:35:40;;;;;;;8.52;1.40;;;14.20;55.90;;;;;;4998877;28;20071;-76
2022/04/16 12:38:07;;;;;;;4.50;1.40;;;14.40;60.30;;;;;;5013711;28;20045;-75
2022/04/16 12:40:35;;;;;;;3.20;1.42;;;14.90;59.90;;;;;;4998780;28;20134;-75
2022/04/16 12:43:01;;;;;;;2.97;1.10;;;14.80;55.80;;;;;;5013316;28;20036;-75
2022/04/16 12:45:32;;;;;;;2.22;1.10;;;14.40;51.10;;;;;;5016353;28;20144;-75
2022/04/16 12:47:58;;;;;;;3.80;1.40;;;14.20;53.90;;;;;;5011784;28;20040;-75
2022/04/16 12:50:26;;;;;;;2.17;1.20;;;14.70;54.30;;;;;;5020107;28;20044;-76
2022/04/16 12:52:52;;;;;;;2.97;1.30;;;14.30;53.60;;;;;;5011207;28;20752;-75
2022/04/16 12:55:18;;;;;;;2.80;1.50;;;14.80;59.30;;;;;;5015540;28;20587;-75
2022/04/16 12:57:47;;;;;;;5.38;1.70;;;14.30;56.00;;;;;;5012450;28;20446;-75
2022/04/16 13:00:15;;;;;;;4.03;1.58;;;14.50;58.20;;;;;;5011631;28;20127;-75
2022/04/16 13:02:44;;;;;;;2.92;1.58;;;14.50;54.50;;;;;;5000544;28;20128;-78
2022/04/16 13:05:11;;;;;;;4.70;1.52;;;14.40;60.20;;;;;;5006988;28;20060;-75
2022/04/16 13:07:38;;;;;;;4.00;1.35;;;14.70;57.60;;;;;;5021233;28;20218;-76
2022/04/16 13:10:05;;;;;;;3.85;1.30;;;14.90;55.10;;;;;;5027964;28;20092;-76